sensor_id;sensor_type;location;lat;lon;timestamp;P1;durP1;ratioP1;P2;durP2;ratioP2
29730;SDS011;16639;51.488;0.152;2023-03-08T00:00:05;41.53;;;25.10;;
29730;SDS011;16639;51.488;0.152;2023-03-08T00:02:44;43.65;;;24.90;;
29730;SDS011;16639;51.488;0.152;2023-03-08T00:05:11;48.22;;;24.42;;
29730;SDS011;16639;51.488;0.152;2023-03-08T00:07:39;42.60;;;25.83;;
29730;SDS011;16639;51.488;0.152;2023-03-08T00:10:06;44.42;;;25.33;;
29730;SDS011;16639;51.488;0.152;2023-03-08T00:12:34;45.20;;;26.95;;
29730;SDS011;16639;51.488;0.152;2023-03-08T00:15:02;40.67;;;24.35;;
29730;SDS011;16639;51.488;0.152;2023-03-08T00:17:29;48.60;;;25.77;;
29730;SDS011;16639;51.488;0.152;2023-03-08T00:19:57;52.53;;;27.98;;
29730;SDS011;16639;51.488;0.152;2023-03-08T00:22:24;48.55;;;27.30;;
29730;SDS011;16639;51.488;0.152;2023-03-08T00:24:51;48.28;;;30.63;;
29730;SDS011;16639;51.488;0.152;2023-03-08T00:27:19;54.63;;;29.05;;
29730;SDS011;16639;51.488;0.152;2023-03-08T00:29:47;53.50;;;30.35;;
29730;SDS011;16639;51.488;0.152;2023-03-08T00:32:15;47.30;;;29.52;;
29730;SDS011;16639;51.488;0.152;2023-03-08T00:34:43;54.60;;;30.92;;
29730;SDS011;16639;51.488;0.152;2023-03-08T00:37:12;53.83;;;29.10;;
29730;SDS011;16639;51.488;0.152;2023-03-08T00:39:40;49.80;;;28.92;;
29730;SDS011;16639;51.488;0.152;2023-03-08T00:42:07;54.58;;;29.33;;
29730;SDS011;16639;51.488;0.152;2023-03-08T00:44:35;55.25;;;29.27;;
29730;SDS011;16639;51.488;0.152;2023-03-08T00:47:02;46.55;;;27.50;;
29730;SDS011;16639;51.488;0.152;2023-03-08T00:49:30;53.83;;;27.45;;
29730;SDS011;16639;51.488;0.152;2023-03-08T00:51:57;48.83;;;27.58;;
29730;SDS011;16639;51.488;0.152;2023-03-08T00:54:24;48.28;;;28.33;;
29730;SDS011;16639;51.488;0.152;2023-03-08T00:56:52;50.67;;;27.95;;
29730;SDS011;16639;51.488;0.152;2023-03-08T00:59:19;59.10;;;30.20;;
29730;SDS011;16639;51.488;0.152;2023-03-08T01:01:47;50.58;;;28.15;;
29730;SDS011;16639;51.488;0.152;2023-03-08T01:04:14;53.80;;;27.88;;
29730;SDS011;16639;51.488;0.152;2023-03-08T01:06:42;54.83;;;28.17;;
29730;SDS011;16639;51.488;0.152;2023-03-08T01:09:09;49.10;;;28.60;;
29730;SDS011;16639;51.488;0.152;2023-03-08T01:11:37;57.67;;;29.50;;
29730;SDS011;16639;51.488;0.152;2023-03-08T01:14:05;56.10;;;29.10;;
29730;SDS011;16639;51.488;0.152;2023-03-08T01:16:34;47.25;;;28.65;;
29730;SDS011;16639;51.488;0.152;2023-03-08T01:19:02;51.80;;;28.15;;
29730;SDS011;16639;51.488;0.152;2023-03-08T01:21:31;46.85;;;28.88;;
29730;SDS011;16639;51.488;0.152;2023-03-08T01:23:59;44.75;;;27.98;;
29730;SDS011;16639;51.488;0.152;2023-03-08T01:26:26;43.08;;;26.42;;
29730;SDS011;16639;51.488;0.152;2023-03-08T01:28:53;40.15;;;25.85;;
29730;SDS011;16639;51.488;0.152;2023-03-08T01:31:23;45.92;;;26.52;;
29730;SDS011;16639;51.488;0.152;2023-03-08T01:33:55;53.00;;;26.75;;
29730;SDS011;16639;51.488;0.152;2023-03-08T01:36:24;46.90;;;26.20;;
29730;SDS011;16639;51.488;0.152;2023-03-08T01:38:53;47.20;;;26.90;;
29730;SDS011;16639;51.488;0.152;2023-03-08T01:41:25;52.97;;;26.23;;
29730;SDS011;16639;51.488;0.152;2023-03-08T01:43:55;44.63;;;24.80;;
29730;SDS011;16639;51.488;0.152;2023-03-08T01:48:58;46.60;;;27.33;;
29730;SDS011;16639;51.488;0.152;2023-03-08T01:51:29;52.05;;;27.40;;
29730;SDS011;16639;51.488;0.152;2023-03-08T01:54:25;46.42;;;26.40;;
29730;SDS011;16639;51.488;0.152;2023-03-08T01:56:58;43.35;;;25.67;;
29730;SDS011;16639;51.488;0.152;2023-03-08T01:59:31;44.33;;;28.13;;
29730;SDS011;16639;51.488;0.152;2023-03-08T02:02:00;49.08;;;27.10;;
29730;SDS011;16639;51.488;0.152;2023-03-08T02:04:29;44.72;;;25.70;;
29730;SDS011;16639;51.488;0.152;2023-03-08T02:06:57;46.90;;;26.77;;
29730;SDS011;16639;51.488;0.152;2023-03-08T02:09:24;51.08;;;27.45;;
29730;SDS011;16639;51.488;0.152;2023-03-08T02:11:53;47.20;;;25.55;;
29730;SDS011;16639;51.488;0.152;2023-03-08T02:14:24;43.15;;;26.25;;
29730;SDS011;16639;51.488;0.152;2023-03-08T02:16:52;42.08;;;25.20;;
29730;SDS011;16639;51.488;0.152;2023-03-08T02:20:07;45.08;;;25.73;;
29730;SDS011;16639;51.488;0.152;2023-03-08T02:22:08;44.92;;;27.52;;
29730;SDS011;16639;51.488;0.152;2023-03-08T02:24:36;49.03;;;27.98;;
29730;SDS011;16639;51.488;0.152;2023-03-08T02:27:12;48.17;;;27.17;;
29730;SDS011;16639;51.488;0.152;2023-03-08T02:29:44;46.75;;;26.88;;
29730;SDS011;16639;51.488;0.152;2023-03-08T02:32:11;46.13;;;26.42;;
29730;SDS011;16639;51.488;0.152;2023-03-08T02:34:39;48.22;;;27.10;;
29730;SDS011;16639;51.488;0.152;2023-03-08T02:37:07;52.85;;;28.45;;
29730;SDS011;16639;51.488;0.152;2023-03-08T02:39:34;53.15;;;28.52;;
29730;SDS011;16639;51.488;0.152;2023-03-08T02:42:02;50.88;;;28.05;;
29730;SDS011;16639;51.488;0.152;2023-03-08T02:44:29;55.33;;;29.33;;
29730;SDS011;16639;51.488;0.152;2023-03-08T02:46:56;48.83;;;28.92;;
29730;SDS011;16639;51.488;0.152;2023-03-08T02:49:24;51.42;;;28.40;;
29730;SDS011;16639;51.488;0.152;2023-03-08T02:51:51;53.53;;;28.95;;
29730;SDS011;16639;51.488;0.152;2023-03-08T02:54:19;51.33;;;29.75;;
29730;SDS011;16639;51.488;0.152;2023-03-08T02:56:46;63.75;;;31.80;;
29730;SDS011;16639;51.488;0.152;2023-03-08T02:59:14;54.97;;;31.58;;
29730;SDS011;16639;51.488;0.152;2023-03-08T03:01:41;61.55;;;31.08;;
29730;SDS011;16639;51.488;0.152;2023-03-08T03:04:08;54.85;;;29.55;;
29730;SDS011;16639;51.488;0.152;2023-03-08T03:06:36;60.38;;;30.10;;
29730;SDS011;16639;51.488;0.152;2023-03-08T03:09:07;62.65;;;30.58;;
29730;SDS011;16639;51.488;0.152;2023-03-08T03:11:35;56.30;;;29.85;;
29730;SDS011;16639;51.488;0.152;2023-03-08T03:14:03;55.20;;;31.77;;
29730;SDS011;16639;51.488;0.152;2023-03-08T03:16:30;50.35;;;29.15;;
29730;SDS011;16639;51.488;0.152;2023-03-08T03:18:58;57.28;;;32.42;;
29730;SDS011;16639;51.488;0.152;2023-03-08T03:21:26;55.50;;;31.15;;
29730;SDS011;16639;51.488;0.152;2023-03-08T03:23:53;49.47;;;30.40;;
29730;SDS011;16639;51.488;0.152;2023-03-08T03:26:21;55.83;;;31.50;;
29730;SDS011;16639;51.488;0.152;2023-03-08T03:28:50;63.53;;;31.13;;
29730;SDS011;16639;51.488;0.152;2023-03-08T03:31:21;53.78;;;27.88;;
29730;SDS011;16639;51.488;0.152;2023-03-08T03:33:50;60.55;;;29.40;;
29730;SDS011;16639;51.488;0.152;2023-03-08T03:36:18;56.17;;;27.55;;
29730;SDS011;16639;51.488;0.152;2023-03-08T03:38:47;53.38;;;26.48;;
29730;SDS011;16639;51.488;0.152;2023-03-08T03:41:16;49.97;;;26.45;;
29730;SDS011;16639;51.488;0.152;2023-03-08T03:43:46;47.92;;;26.98;;
29730;SDS011;16639;51.488;0.152;2023-03-08T03:46:16;45.38;;;25.58;;
29730;SDS011;16639;51.488;0.152;2023-03-08T03:48:45;50.17;;;26.30;;
29730;SDS011;16639;51.488;0.152;2023-03-08T03:51:13;49.90;;;23.15;;
29730;SDS011;16639;51.488;0.152;2023-03-08T03:53:43;35.20;;;18.45;;
29730;SDS011;16639;51.488;0.152;2023-03-08T03:58:45;31.85;;;18.17;;
29730;SDS011;16639;51.488;0.152;2023-03-08T04:03:44;33.17;;;18.10;;
29730;SDS011;16639;51.488;0.152;2023-03-08T04:06:13;29.67;;;16.23;;
29730;SDS011;16639;51.488;0.152;2023-03-08T04:08:43;30.27;;;16.40;;
29730;SDS011;16639;51.488;0.152;2023-03-08T04:11:15;62.70;;;17.35;;
29730;SDS011;16639;51.488;0.152;2023-03-08T04:13:45;25.73;;;15.68;;
29730;SDS011;16639;51.488;0.152;2023-03-08T04:16:36;22.42;;;12.20;;
29730;SDS011;16639;51.488;0.152;2023-03-08T04:19:04;23.65;;;12.55;;
29730;SDS011;16639;51.488;0.152;2023-03-08T04:21:33;21.92;;;11.90;;
29730;SDS011;16639;51.488;0.152;2023-03-08T04:24:01;24.67;;;12.02;;
29730;SDS011;16639;51.488;0.152;2023-03-08T04:26:28;19.33;;;12.35;;
29730;SDS011;16639;51.488;0.152;2023-03-08T04:28:56;24.83;;;11.70;;
29730;SDS011;16639;51.488;0.152;2023-03-08T04:31:24;25.27;;;11.93;;
29730;SDS011;16639;51.488;0.152;2023-03-08T04:33:53;23.35;;;12.48;;
29730;SDS011;16639;51.488;0.152;2023-03-08T04:36:21;25.33;;;13.77;;
29730;SDS011;16639;51.488;0.152;2023-03-08T04:38:49;26.70;;;13.90;;
29730;SDS011;16639;51.488;0.152;2023-03-08T04:41:17;19.70;;;12.05;;
29730;SDS011;16639;51.488;0.152;2023-03-08T04:43:46;28.75;;;13.50;;
29730;SDS011;16639;51.488;0.152;2023-03-08T04:46:18;22.00;;;13.40;;
29730;SDS011;16639;51.488;0.152;2023-03-08T04:48:47;26.33;;;13.70;;
29730;SDS011;16639;51.488;0.152;2023-03-08T04:51:16;23.20;;;13.43;;
29730;SDS011;16639;51.488;0.152;2023-03-08T04:53:43;22.73;;;12.55;;
29730;SDS011;16639;51.488;0.152;2023-03-08T04:56:11;25.63;;;12.40;;
29730;SDS011;16639;51.488;0.152;2023-03-08T04:58:40;25.27;;;13.55;;
29730;SDS011;16639;51.488;0.152;2023-03-08T05:01:12;25.90;;;13.75;;
29730;SDS011;16639;51.488;0.152;2023-03-08T05:03:44;26.20;;;13.63;;
29730;SDS011;16639;51.488;0.152;2023-03-08T05:06:12;28.60;;;13.93;;
29730;SDS011;16639;51.488;0.152;2023-03-08T05:08:42;27.13;;;13.27;;
29730;SDS011;16639;51.488;0.152;2023-03-08T05:11:10;21.63;;;13.43;;
29730;SDS011;16639;51.488;0.152;2023-03-08T05:14:00;23.40;;;13.50;;
29730;SDS011;16639;51.488;0.152;2023-03-08T05:16:28;22.42;;;13.05;;
29730;SDS011;16639;51.488;0.152;2023-03-08T05:18:55;22.55;;;13.20;;
29730;SDS011;16639;51.488;0.152;2023-03-08T05:21:22;25.85;;;13.57;;
29730;SDS011;16639;51.488;0.152;2023-03-08T05:23:50;24.65;;;13.82;;
29730;SDS011;16639;51.488;0.152;2023-03-08T05:26:17;25.05;;;14.32;;
29730;SDS011;16639;51.488;0.152;2023-03-08T05:28:45;23.55;;;11.98;;
29730;SDS011;16639;51.488;0.152;2023-03-08T05:31:13;26.88;;;13.52;;
29730;SDS011;16639;51.488;0.152;2023-03-08T05:33:43;20.73;;;12.63;;
29730;SDS011;16639;51.488;0.152;2023-03-08T05:36:15;25.02;;;14.02;;
29730;SDS011;16639;51.488;0.152;2023-03-08T05:38:44;25.13;;;15.45;;
29730;SDS011;16639;51.488;0.152;2023-03-08T05:41:12;26.65;;;14.35;;
29730;SDS011;16639;51.488;0.152;2023-03-08T05:43:42;21.65;;;12.25;;
29730;SDS011;16639;51.488;0.152;2023-03-08T05:46:10;20.02;;;12.32;;
29730;SDS011;16639;51.488;0.152;2023-03-08T05:48:40;30.98;;;13.43;;
29730;SDS011;16639;51.488;0.152;2023-03-08T05:51:09;21.75;;;12.93;;
29730;SDS011;16639;51.488;0.152;2023-03-08T05:53:38;28.90;;;15.27;;
29730;SDS011;16639;51.488;0.152;2023-03-08T05:56:27;25.70;;;12.88;;
29730;SDS011;16639;51.488;0.152;2023-03-08T05:58:53;22.10;;;12.25;;
29730;SDS011;16639;51.488;0.152;2023-03-08T06:01:22;19.88;;;11.90;;
29730;SDS011;16639;51.488;0.152;2023-03-08T06:03:51;21.80;;;12.57;;
29730;SDS011;16639;51.488;0.152;2023-03-08T06:06:24;19.83;;;11.48;;
29730;SDS011;16639;51.488;0.152;2023-03-08T06:08:52;31.85;;;12.25;;
29730;SDS011;16639;51.488;0.152;2023-03-08T06:11:21;24.05;;;12.82;;
29730;SDS011;16639;51.488;0.152;2023-03-08T06:13:49;17.08;;;10.07;;
29730;SDS011;16639;51.488;0.152;2023-03-08T06:16:16;20.10;;;12.13;;
29730;SDS011;16639;51.488;0.152;2023-03-08T06:18:44;18.85;;;11.30;;
29730;SDS011;16639;51.488;0.152;2023-03-08T06:21:18;17.17;;;10.32;;
29730;SDS011;16639;51.488;0.152;2023-03-08T06:23:50;14.38;;;9.75;;
29730;SDS011;16639;51.488;0.152;2023-03-08T06:26:17;16.17;;;9.30;;
29730;SDS011;16639;51.488;0.152;2023-03-08T06:28:45;15.43;;;10.27;;
29730;SDS011;16639;51.488;0.152;2023-03-08T06:31:14;14.13;;;8.88;;
29730;SDS011;16639;51.488;0.152;2023-03-08T06:33:42;19.23;;;9.15;;
29730;SDS011;16639;51.488;0.152;2023-03-08T06:36:11;16.58;;;10.18;;
29730;SDS011;16639;51.488;0.152;2023-03-08T06:38:40;28.35;;;12.85;;
29730;SDS011;16639;51.488;0.152;2023-03-08T06:41:08;13.60;;;8.65;;
29730;SDS011;16639;51.488;0.152;2023-03-08T06:43:37;21.80;;;9.95;;
29730;SDS011;16639;51.488;0.152;2023-03-08T06:46:05;14.40;;;8.63;;
29730;SDS011;16639;51.488;0.152;2023-03-08T06:48:35;11.00;;;7.38;;
29730;SDS011;16639;51.488;0.152;2023-03-08T06:51:04;13.35;;;7.00;;
29730;SDS011;16639;51.488;0.152;2023-03-08T06:53:32;15.15;;;8.38;;
29730;SDS011;16639;51.488;0.152;2023-03-08T06:56:02;10.75;;;7.43;;
29730;SDS011;16639;51.488;0.152;2023-03-08T06:58:30;14.52;;;8.52;;
29730;SDS011;16639;51.488;0.152;2023-03-08T07:00:58;17.65;;;7.75;;
29730;SDS011;16639;51.488;0.152;2023-03-08T07:03:26;16.17;;;8.02;;
29730;SDS011;16639;51.488;0.152;2023-03-08T07:05:57;20.90;;;10.15;;
29730;SDS011;16639;51.488;0.152;2023-03-08T07:08:26;15.88;;;8.70;;
29730;SDS011;16639;51.488;0.152;2023-03-08T07:10:53;20.05;;;10.38;;
29730;SDS011;16639;51.488;0.152;2023-03-08T07:13:21;14.43;;;9.25;;
29730;SDS011;16639;51.488;0.152;2023-03-08T07:15:49;14.88;;;7.82;;
29730;SDS011;16639;51.488;0.152;2023-03-08T07:18:18;13.60;;;7.15;;
29730;SDS011;16639;51.488;0.152;2023-03-08T07:20:53;11.88;;;7.75;;
29730;SDS011;16639;51.488;0.152;2023-03-08T07:23:22;23.50;;;8.07;;
29730;SDS011;16639;51.488;0.152;2023-03-08T07:25:50;11.25;;;6.38;;
29730;SDS011;16639;51.488;0.152;2023-03-08T07:28:18;12.90;;;6.80;;
29730;SDS011;16639;51.488;0.152;2023-03-08T07:30:49;11.52;;;7.70;;
29730;SDS011;16639;51.488;0.152;2023-03-08T07:33:18;12.18;;;7.97;;
29730;SDS011;16639;51.488;0.152;2023-03-08T07:35:47;16.05;;;8.32;;
29730;SDS011;16639;51.488;0.152;2023-03-08T07:38:14;15.18;;;9.10;;
29730;SDS011;16639;51.488;0.152;2023-03-08T07:40:42;13.43;;;8.40;;
29730;SDS011;16639;51.488;0.152;2023-03-08T07:43:10;15.57;;;12.20;;
29730;SDS011;16639;51.488;0.152;2023-03-08T07:45:38;12.18;;;8.00;;
29730;SDS011;16639;51.488;0.152;2023-03-08T07:48:05;13.13;;;6.53;;
29730;SDS011;16639;51.488;0.152;2023-03-08T07:50:33;546.75;;;65.32;;
29730;SDS011;16639;51.488;0.152;2023-03-08T07:53:00;8.77;;;6.05;;
29730;SDS011;16639;51.488;0.152;2023-03-08T07:55:30;13.95;;;6.10;;
29730;SDS011;16639;51.488;0.152;2023-03-08T07:57:57;15.90;;;6.53;;
29730;SDS011;16639;51.488;0.152;2023-03-08T08:00:26;10.88;;;6.85;;
29730;SDS011;16639;51.488;0.152;2023-03-08T08:02:54;14.05;;;7.00;;
29730;SDS011;16639;51.488;0.152;2023-03-08T08:05:21;20.25;;;8.98;;
29730;SDS011;16639;51.488;0.152;2023-03-08T08:07:49;17.85;;;8.15;;
29730;SDS011;16639;51.488;0.152;2023-03-08T08:10:16;17.08;;;9.60;;
29730;SDS011;16639;51.488;0.152;2023-03-08T08:12:43;399.52;;;45.42;;
29730;SDS011;16639;51.488;0.152;2023-03-08T08:15:11;27.20;;;10.75;;
29730;SDS011;16639;51.488;0.152;2023-03-08T08:17:38;17.42;;;9.05;;
29730;SDS011;16639;51.488;0.152;2023-03-08T08:20:05;180.52;;;32.60;;
29730;SDS011;16639;51.488;0.152;2023-03-08T08:22:36;16.52;;;9.95;;
29730;SDS011;16639;51.488;0.152;2023-03-08T08:25:04;24.65;;;12.25;;
29730;SDS011;16639;51.488;0.152;2023-03-08T08:27:32;21.92;;;11.40;;
29730;SDS011;16639;51.488;0.152;2023-03-08T08:30:01;15.07;;;10.75;;
29730;SDS011;16639;51.488;0.152;2023-03-08T08:32:31;13.60;;;11.50;;
29730;SDS011;16639;51.488;0.152;2023-03-08T08:35:00;12.40;;;11.00;;
29730;SDS011;16639;51.488;0.152;2023-03-08T08:37:27;14.57;;;11.02;;
29730;SDS011;16639;51.488;0.152;2023-03-08T08:39:56;12.95;;;11.43;;
29730;SDS011;16639;51.488;0.152;2023-03-08T08:42:24;14.65;;;11.10;;
29730;SDS011;16639;51.488;0.152;2023-03-08T08:44:51;17.50;;;13.55;;
29730;SDS011;16639;51.488;0.152;2023-03-08T08:47:19;17.80;;;12.40;;
29730;SDS011;16639;51.488;0.152;2023-03-08T08:49:46;14.57;;;10.70;;
29730;SDS011;16639;51.488;0.152;2023-03-08T08:52:14;15.70;;;12.63;;
29730;SDS011;16639;51.488;0.152;2023-03-08T08:54:41;78.40;;;16.65;;
29730;SDS011;16639;51.488;0.152;2023-03-08T08:57:08;187.63;;;26.88;;
29730;SDS011;16639;51.488;0.152;2023-03-08T08:59:36;196.32;;;30.73;;
29730;SDS011;16639;51.488;0.152;2023-03-08T09:02:04;11.60;;;9.32;;
29730;SDS011;16639;51.488;0.152;2023-03-08T09:04:32;85.72;;;18.30;;
29730;SDS011;16639;51.488;0.152;2023-03-08T09:06:59;15.40;;;9.15;;
29730;SDS011;16639;51.488;0.152;2023-03-08T09:09:26;21.13;;;11.40;;
29730;SDS011;16639;51.488;0.152;2023-03-08T09:11:54;10.48;;;7.70;;
29730;SDS011;16639;51.488;0.152;2023-03-08T09:14:24;10.00;;;7.65;;
29730;SDS011;16639;51.488;0.152;2023-03-08T09:16:51;12.45;;;7.75;;
29730;SDS011;16639;51.488;0.152;2023-03-08T09:19:19;18.85;;;7.70;;
29730;SDS011;16639;51.488;0.152;2023-03-08T09:21:46;19.75;;;8.07;;
29730;SDS011;16639;51.488;0.152;2023-03-08T09:24:14;10.93;;;6.63;;
29730;SDS011;16639;51.488;0.152;2023-03-08T09:26:42;12.00;;;7.32;;
29730;SDS011;16639;51.488;0.152;2023-03-08T09:29:10;15.85;;;9.68;;
29730;SDS011;16639;51.488;0.152;2023-03-08T09:31:38;10.25;;;6.35;;
29730;SDS011;16639;51.488;0.152;2023-03-08T09:34:06;6.55;;;5.18;;
29730;SDS011;16639;51.488;0.152;2023-03-08T09:36:39;10.90;;;6.63;;
29730;SDS011;16639;51.488;0.152;2023-03-08T09:39:07;9.30;;;5.15;;
29730;SDS011;16639;51.488;0.152;2023-03-08T09:55:26;7.38;;;4.82;;
29730;SDS011;16639;51.488;0.152;2023-03-08T09:58:00;6.20;;;4.28;;
29730;SDS011;16639;51.488;0.152;2023-03-08T10:00:37;8.50;;;4.93;;
29730;SDS011;16639;51.488;0.152;2023-03-08T10:06:02;8.15;;;4.93;;
29730;SDS011;16639;51.488;0.152;2023-03-08T10:08:51;9.02;;;5.03;;
29730;SDS011;16639;51.488;0.152;2023-03-08T10:14:02;10.70;;;4.28;;
29730;SDS011;16639;51.488;0.152;2023-03-08T10:16:43;9.20;;;4.95;;
29730;SDS011;16639;51.488;0.152;2023-03-08T10:19:30;62.72;;;11.77;;
29730;SDS011;16639;51.488;0.152;2023-03-08T10:22:07;8.02;;;4.25;;
29730;SDS011;16639;51.488;0.152;2023-03-08T10:25:17;7.70;;;4.15;;
29730;SDS011;16639;51.488;0.152;2023-03-08T10:27:54;10.35;;;4.30;;
29730;SDS011;16639;51.488;0.152;2023-03-08T10:30:25;12.73;;;4.15;;
29730;SDS011;16639;51.488;0.152;2023-03-08T10:33:04;7.65;;;3.85;;
29730;SDS011;16639;51.488;0.152;2023-03-08T10:35:38;4.40;;;3.97;;
29730;SDS011;16639;51.488;0.152;2023-03-08T10:38:27;8.32;;;4.20;;
29730;SDS011;16639;51.488;0.152;2023-03-08T10:41:02;7.57;;;4.38;;
29730;SDS011;16639;51.488;0.152;2023-03-08T10:43:38;6.47;;;4.32;;
29730;SDS011;16639;51.488;0.152;2023-03-08T10:46:11;8.65;;;4.80;;
29730;SDS011;16639;51.488;0.152;2023-03-08T10:48:46;10.48;;;4.75;;
29730;SDS011;16639;51.488;0.152;2023-03-08T10:53:58;52.40;;;10.52;;
29730;SDS011;16639;51.488;0.152;2023-03-08T10:56:38;12.40;;;6.47;;
29730;SDS011;16639;51.488;0.152;2023-03-08T10:59:16;7.93;;;5.32;;
29730;SDS011;16639;51.488;0.152;2023-03-08T11:01:54;6.55;;;5.15;;
29730;SDS011;16639;51.488;0.152;2023-03-08T11:04:25;11.20;;;5.07;;
29730;SDS011;16639;51.488;0.152;2023-03-08T11:06:53;11.32;;;5.75;;
29730;SDS011;16639;51.488;0.152;2023-03-08T11:09:22;17.15;;;5.75;;
29730;SDS011;16639;51.488;0.152;2023-03-08T11:11:59;7.80;;;4.70;;
29730;SDS011;16639;51.488;0.152;2023-03-08T11:14:27;16.83;;;6.28;;
29730;SDS011;16639;51.488;0.152;2023-03-08T11:20:16;37.75;;;8.90;;
29730;SDS011;16639;51.488;0.152;2023-03-08T11:33:40;6.32;;;4.32;;
29730;SDS011;16639;51.488;0.152;2023-03-08T11:36:41;13.77;;;4.35;;
29730;SDS011;16639;51.488;0.152;2023-03-08T11:39:25;8.25;;;4.70;;
29730;SDS011;16639;51.488;0.152;2023-03-08T11:42:02;11.93;;;5.00;;
29730;SDS011;16639;51.488;0.152;2023-03-08T11:45:01;7.57;;;4.10;;
29730;SDS011;16639;51.488;0.152;2023-03-08T11:47:55;5.57;;;3.80;;
29730;SDS011;16639;51.488;0.152;2023-03-08T11:50:38;7.72;;;4.53;;
29730;SDS011;16639;51.488;0.152;2023-03-08T11:53:14;32.42;;;5.05;;
29730;SDS011;16639;51.488;0.152;2023-03-08T11:58:37;8.95;;;4.53;;
29730;SDS011;16639;51.488;0.152;2023-03-08T12:01:17;8.70;;;4.40;;
29730;SDS011;16639;51.488;0.152;2023-03-08T12:03:49;13.48;;;4.45;;
29730;SDS011;16639;51.488;0.152;2023-03-08T12:06:28;5.07;;;3.70;;
29730;SDS011;16639;51.488;0.152;2023-03-08T12:09:15;552.10;;;59.00;;
29730;SDS011;16639;51.488;0.152;2023-03-08T12:17:25;7.05;;;4.13;;
29730;SDS011;16639;51.488;0.152;2023-03-08T12:19:57;10.32;;;4.72;;
29730;SDS011;16639;51.488;0.152;2023-03-08T12:27:56;20.90;;;6.55;;
29730;SDS011;16639;51.488;0.152;2023-03-08T12:31:06;6.45;;;4.93;;
29730;SDS011;16639;51.488;0.152;2023-03-08T12:33:55;6.97;;;4.65;;
29730;SDS011;16639;51.488;0.152;2023-03-08T12:36:43;8.45;;;5.22;;
29730;SDS011;16639;51.488;0.152;2023-03-08T12:41:59;89.40;;;11.73;;
29730;SDS011;16639;51.488;0.152;2023-03-08T12:44:28;87.47;;;11.10;;
29730;SDS011;16639;51.488;0.152;2023-03-08T12:47:00;8.88;;;5.13;;
29730;SDS011;16639;51.488;0.152;2023-03-08T12:49:37;7.03;;;4.68;;
29730;SDS011;16639;51.488;0.152;2023-03-08T12:55:00;8.43;;;4.97;;
29730;SDS011;16639;51.488;0.152;2023-03-08T12:57:45;12.35;;;5.40;;
29730;SDS011;16639;51.488;0.152;2023-03-08T13:05:40;8.18;;;4.35;;
29730;SDS011;16639;51.488;0.152;2023-03-08T13:23:55;5.18;;;3.58;;
29730;SDS011;16639;51.488;0.152;2023-03-08T13:26:32;19.20;;;6.00;;
29730;SDS011;16639;51.488;0.152;2023-03-08T13:29:27;14.85;;;6.55;;
29730;SDS011;16639;51.488;0.152;2023-03-08T13:32:08;10.65;;;3.75;;
29730;SDS011;16639;51.488;0.152;2023-03-08T13:34:39;5.03;;;3.25;;
29730;SDS011;16639;51.488;0.152;2023-03-08T13:37:23;16.13;;;4.85;;
29730;SDS011;16639;51.488;0.152;2023-03-08T13:39:53;5.72;;;4.13;;
29730;SDS011;16639;51.488;0.152;2023-03-08T13:42:24;8.35;;;5.38;;
29730;SDS011;16639;51.488;0.152;2023-03-08T13:45:05;10.70;;;6.05;;
29730;SDS011;16639;51.488;0.152;2023-03-08T13:47:34;6.35;;;4.18;;
29730;SDS011;16639;51.488;0.152;2023-03-08T13:50:05;9.95;;;4.30;;
29730;SDS011;16639;51.488;0.152;2023-03-08T13:52:35;6.28;;;4.28;;
29730;SDS011;16639;51.488;0.152;2023-03-08T13:55:04;7.97;;;3.75;;
29730;SDS011;16639;51.488;0.152;2023-03-08T13:57:35;11.68;;;4.55;;
29730;SDS011;16639;51.488;0.152;2023-03-08T14:00:21;130.93;;;16.90;;
29730;SDS011;16639;51.488;0.152;2023-03-08T14:02:52;6.72;;;5.03;;
29730;SDS011;16639;51.488;0.152;2023-03-08T14:05:21;8.38;;;4.70;;
29730;SDS011;16639;51.488;0.152;2023-03-08T14:07:57;7.18;;;4.30;;
29730;SDS011;16639;51.488;0.152;2023-03-08T14:10:33;10.38;;;4.85;;
29730;SDS011;16639;51.488;0.152;2023-03-08T14:13:04;6.00;;;4.43;;
29730;SDS011;16639;51.488;0.152;2023-03-08T14:15:39;10.93;;;4.90;;
29730;SDS011;16639;51.488;0.152;2023-03-08T14:18:22;220.20;;;26.05;;
29730;SDS011;16639;51.488;0.152;2023-03-08T14:23:53;12.13;;;5.72;;
29730;SDS011;16639;51.488;0.152;2023-03-08T14:26:32;7.93;;;5.13;;
29730;SDS011;16639;51.488;0.152;2023-03-08T14:29:10;6.32;;;4.50;;
29730;SDS011;16639;51.488;0.152;2023-03-08T14:31:51;8.13;;;5.15;;
29730;SDS011;16639;51.488;0.152;2023-03-08T14:39:49;9.50;;;6.93;;
29730;SDS011;16639;51.488;0.152;2023-03-08T14:42:35;15.70;;;7.07;;
29730;SDS011;16639;51.488;0.152;2023-03-08T14:46:13;14.80;;;6.03;;
29730;SDS011;16639;51.488;0.152;2023-03-08T14:53:58;8.52;;;4.85;;
29730;SDS011;16639;51.488;0.152;2023-03-08T14:56:28;11.45;;;5.15;;
29730;SDS011;16639;51.488;0.152;2023-03-08T14:58:59;5.85;;;4.78;;
29730;SDS011;16639;51.488;0.152;2023-03-08T15:01:30;8.48;;;5.60;;
29730;SDS011;16639;51.488;0.152;2023-03-08T15:04:00;10.13;;;5.55;;
29730;SDS011;16639;51.488;0.152;2023-03-08T15:06:29;7.97;;;5.28;;
29730;SDS011;16639;51.488;0.152;2023-03-08T15:08:59;8.70;;;5.75;;
29730;SDS011;16639;51.488;0.152;2023-03-08T15:11:28;7.22;;;5.18;;
29730;SDS011;16639;51.488;0.152;2023-03-08T15:13:57;6.35;;;5.22;;
29730;SDS011;16639;51.488;0.152;2023-03-08T15:16:25;7.78;;;5.07;;
29730;SDS011;16639;51.488;0.152;2023-03-08T15:18:53;9.77;;;5.75;;
29730;SDS011;16639;51.488;0.152;2023-03-08T15:21:22;245.75;;;32.10;;
29730;SDS011;16639;51.488;0.152;2023-03-08T15:23:51;9.13;;;6.70;;
29730;SDS011;16639;51.488;0.152;2023-03-08T15:26:23;8.85;;;6.80;;
29730;SDS011;16639;51.488;0.152;2023-03-08T15:28:53;11.23;;;7.60;;
29730;SDS011;16639;51.488;0.152;2023-03-08T15:31:21;32.63;;;8.15;;
29730;SDS011;16639;51.488;0.152;2023-03-08T15:33:49;11.07;;;6.63;;
29730;SDS011;16639;51.488;0.152;2023-03-08T15:36:17;12.80;;;6.70;;
29730;SDS011;16639;51.488;0.152;2023-03-08T15:38:45;12.52;;;6.93;;
29730;SDS011;16639;51.488;0.152;2023-03-08T15:41:13;9.77;;;6.45;;
29730;SDS011;16639;51.488;0.152;2023-03-08T15:43:41;14.75;;;7.22;;
29730;SDS011;16639;51.488;0.152;2023-03-08T15:50:22;13.40;;;6.95;;
29730;SDS011;16639;51.488;0.152;2023-03-08T15:52:50;81.53;;;10.57;;
29730;SDS011;16639;51.488;0.152;2023-03-08T15:55:18;9.95;;;6.22;;
29730;SDS011;16639;51.488;0.152;2023-03-08T15:57:45;185.43;;;23.85;;
29730;SDS011;16639;51.488;0.152;2023-03-08T16:00:13;10.77;;;6.20;;
29730;SDS011;16639;51.488;0.152;2023-03-08T16:02:42;11.02;;;8.00;;
29730;SDS011;16639;51.488;0.152;2023-03-08T16:05:10;10.80;;;6.65;;
29730;SDS011;16639;51.488;0.152;2023-03-08T16:07:39;9.10;;;7.05;;
29730;SDS011;16639;51.488;0.152;2023-03-08T16:10:09;59.75;;;10.60;;
29730;SDS011;16639;51.488;0.152;2023-03-08T16:12:38;16.05;;;7.57;;
29730;SDS011;16639;51.488;0.152;2023-03-08T16:15:07;129.13;;;16.60;;
29730;SDS011;16639;51.488;0.152;2023-03-08T16:17:35;15.40;;;7.80;;
29730;SDS011;16639;51.488;0.152;2023-03-08T16:20:03;17.80;;;8.57;;
29730;SDS011;16639;51.488;0.152;2023-03-08T16:22:32;16.67;;;7.85;;
29730;SDS011;16639;51.488;0.152;2023-03-08T16:25:03;21.70;;;7.85;;
29730;SDS011;16639;51.488;0.152;2023-03-08T16:27:32;10.15;;;7.22;;
29730;SDS011;16639;51.488;0.152;2023-03-08T16:30:03;11.52;;;7.55;;
29730;SDS011;16639;51.488;0.152;2023-03-08T16:32:31;11.45;;;8.18;;